This is the latest recevied weather packets stored in our database for station/object W1LBM. If no packets are shown the sender has not sent any weather packets the latest 10 day(s).
| Time | Temp. | Humidity | Pressure | Rain* | Wind** | Luminosity | Snow |
|---|---|---|---|---|---|---|---|
| 1777376567 | 8.89° C | 67% | 1025.9 hPa | 0 mm | - | 81 W/m² | - |
| 1777376263 | 8.89° C | 67% | 1026 hPa | 0 mm | - | 72 W/m² | - |
| 1777375958 | 8.89° C | 69% | 1025.7 hPa | 0 mm | - | 63 W/m² | - |
| 1777375653 | 8.89° C | 67% | 1025.9 hPa | 0 mm | - | 49 W/m² | - |
| 1777375353 | 8.89° C | 69% | 1026.1 hPa | 0 mm | - | 54 W/m² | - |
| 1777375050 | 8.89° C | 70% | 1025.9 hPa | 0 mm | - | 37 W/m² | - |
| 1777374745 | 8.89° C | 71% | 1025.9 hPa | 0 mm | - | 50 W/m² | - |
| 1777374441 | 8.33° C | 74% | 1025.9 hPa | 0 mm | - | 49 W/m² | - |
| 1777374140 | 7.78° C | 76% | 1025.9 hPa | 0 mm | - | 53 W/m² | - |
| 1777373840 | 7.22° C | 78% | 1025.8 hPa | 0 mm | - | 32 W/m² | - |
| 1777373538 | 6.67° C | 83% | 1025.9 hPa | 0 mm | - | 25 W/m² | - |
| 1777373233 | 7.22° C | 82% | 1025.9 hPa | 0 mm | - | 24 W/m² | - |
| 1777372929 | 6.11° C | 87% | 1026 hPa | 0 mm | - | 33 W/m² | - |
| 1777372624 | 5° C | 92% | 1025.9 hPa | 0 mm | - | 30 W/m² | - |
| 1777372323 | 4.44° C | 93% | 1025.8 hPa | 0 mm | - | 20 W/m² | - |
| 1777372022 | 4.44° C | 94% | 1025.8 hPa | 0 mm | - | 18 W/m² | - |
| 1777371718 | 3.89° C | 95% | 1026 hPa | 0 mm | - | 16 W/m² | - |
| 1777371415 | 3.89° C | 94% | 1025.6 hPa | 0 mm | - | 14 W/m² | - |
| 1777371111 | 3.89° C | 94% | 1025.8 hPa | 0 mm | - | 12 W/m² | - |
| 1777370808 | 4.44° C | 94% | 1025.6 hPa | 0 mm | - | 10 W/m² | - |
| 1777370503 | 4.44° C | 94% | 1025.5 hPa | 0 mm | - | 8 W/m² | - |
| 1777370199 | 4.44° C | 95% | 1025.5 hPa | 0 mm | - | 6 W/m² | - |
| 1777369896 | 4.44° C | 95% | 1025.5 hPa | 0 mm | - | 4 W/m² | - |
| 1777369591 | 4.44° C | 95% | 1025.5 hPa | 0 mm | - | 2 W/m² | - |
| 1777369287 | 3.89° C | 95% | 1025.7 hPa | 0 mm | - | 1 W/m² | - |
* Rain latest hour (hover to see other rain measurements)
** Current wind speed in m/s (hover to see current wind gust speed)